Hopper, Arkansas
Current Conditions -  °F | °C
As of 3:53 PM on Wednesday 26 Nov 2014 (Local Time) from KMWT Reporting Station
Clear Clear  
Wind Chill: 55°   Ceiling: Unl
Heat Index: 55°   Visibility: 10mi
Dew Point: 28°   Wind: 9mph
Humidity: 35%   Direction: 320°NW
Pressure: 30.1"   Gusts: 22mph
Location:  34.4166°N, 93.6435°W
Report Text: KMWT 262153Z AUTO 32008G19KT 290V350 10SM CLR 13/M02 A3010 RMK AO2 SLP200 T01281022
Loading
Personal Weather Stations






























Interactive Weather Map New forecast layout! Learn more

10-Day Weather Forecast

Advertisements
Track Severe Weather on mobile